createdAt,value
2023-01-13T00:02:57.661Z,64.14
2023-01-13T00:08:00.130Z,64.31
2023-01-13T00:13:04.615Z,64.55
2023-01-13T00:18:07.094Z,64.65
2023-01-13T00:23:09.540Z,64.43
2023-01-13T00:28:11.973Z,64.75
2023-01-13T00:33:14.470Z,65.94
2023-01-13T00:38:16.781Z,65.32
2023-01-13T00:43:25.137Z,64.08
2023-01-13T00:48:30.926Z,65.72
2023-01-13T00:53:43.566Z,63.92
2023-01-13T00:58:47.597Z,64.07
2023-01-13T01:03:55.176Z,63.92
2023-01-13T01:08:57.871Z,65.44
2023-01-13T01:14:03.038Z,64.93
2023-01-13T01:19:05.556Z,65.96
2023-01-13T01:24:08.297Z,66.24
2023-01-13T01:29:15.513Z,65.89
2023-01-13T01:34:17.997Z,66.15
2023-01-13T01:39:20.423Z,65.69
2023-01-13T01:45:10.382Z,66.40
2023-01-13T01:50:13.029Z,66.38
2023-01-13T01:55:31.238Z,67.40
2023-01-13T02:00:34.095Z,68.55
2023-01-13T02:05:36.933Z,68.08
2023-01-13T02:10:42.128Z,68.78
2023-01-13T02:15:51.459Z,70.25
2023-01-13T02:21:03.112Z,68.90
2023-01-13T02:26:22.168Z,68.64
2023-01-13T02:31:43.161Z,70.18
2023-01-13T02:36:58.665Z,69.38
2023-01-13T02:42:23.980Z,70.55
2023-01-13T02:47:28.142Z,69.38
2023-01-13T02:52:53.109Z,71.20
2023-01-13T02:57:56.959Z,70.56
2023-01-13T03:02:59.440Z,71.44
2023-01-13T03:08:07.117Z,71.25
2023-01-13T03:13:41.839Z,71.72
2023-01-13T03:18:53.634Z,71.36
2023-01-13T03:24:10.156Z,72.80
2023-01-13T03:29:20.175Z,71.66
2023-01-13T03:34:30.313Z,72.07
2023-01-13T03:39:40.370Z,72.39
2023-01-13T03:45:02.203Z,71.85
2023-01-13T03:50:20.247Z,72.01
2023-01-13T03:55:36.207Z,71.55
2023-01-13T04:00:58.653Z,71.27
2023-01-13T04:06:21.988Z,71.10
2023-01-13T04:11:39.070Z,71.37
2023-01-13T04:16:42.166Z,73.10
2023-01-13T04:21:44.615Z,73.24
2023-01-13T04:26:46.775Z,72.17
2023-01-13T04:31:49.293Z,72.19
2023-01-13T04:36:51.645Z,72.99
2023-01-13T04:42:00.085Z,72.92
2023-01-13T04:47:03.284Z,73.46
2023-01-13T04:52:07.095Z,71.72
2023-01-13T04:57:09.383Z,71.77
2023-01-13T05:02:15.268Z,72.12
2023-01-13T05:07:18.472Z,72.84
2023-01-13T05:12:39.096Z,72.49
2023-01-13T05:17:41.455Z,74.23
2023-01-13T05:23:02.364Z,74.92
2023-01-13T05:28:04.818Z,75.22
2023-01-13T05:33:06.928Z,74.48
2023-01-13T05:38:10.007Z,75.05
2023-01-13T05:43:22.160Z,74.25
2023-01-13T05:48:37.480Z,74.99
2023-01-13T05:53:42.992Z,74.94
2023-01-13T05:58:45.140Z,75.26
2023-01-13T06:03:47.449Z,73.92
2023-01-13T06:08:49.692Z,73.42
2023-01-13T06:13:52.224Z,73.10
2023-01-13T06:18:54.789Z,73.83
2023-01-13T06:23:57.249Z,75.41
2023-01-13T06:28:59.568Z,74.43
2023-01-13T06:34:11.750Z,75.40
2023-01-13T06:39:18.917Z,74.54
2023-01-13T06:44:22.927Z,74.65
2023-01-13T06:49:25.246Z,72.76
2023-01-13T06:54:27.885Z,76.07
2023-01-13T06:59:30.337Z,75.60
2023-01-13T07:04:32.650Z,75.64
2023-01-13T07:09:35.036Z,74.73
2023-01-13T07:14:55.915Z,74.77
2023-01-13T07:19:58.216Z,74.75
2023-01-13T07:25:00.509Z,74.12
2023-01-13T07:30:04.194Z,74.55
2023-01-13T07:35:07.229Z,75.19
2023-01-13T07:40:12.782Z,75.56
2023-01-13T07:45:15.164Z,74.15
2023-01-13T07:50:17.435Z,73.72
2023-01-13T07:55:19.578Z,75.69
2023-01-13T08:00:22.504Z,76.96
2023-01-13T08:05:24.665Z,77.74
2023-01-13T08:10:26.795Z,79.38
2023-01-13T08:15:29.990Z,77.99
2023-01-13T08:20:32.118Z,78.30
2023-01-13T08:25:34.633Z,77.21
2023-01-13T08:30:36.941Z,78.66
2023-01-13T08:35:41.657Z,77.07
2023-01-13T08:40:43.977Z,77.61
2023-01-13T08:45:46.163Z,78.25
2023-01-13T08:50:48.512Z,78.91
2023-01-13T08:55:50.882Z,76.62
2023-01-13T09:00:53.049Z,76.73
2023-01-13T09:05:55.252Z,77.22
2023-01-13T09:10:58.099Z,78.92
2023-01-13T09:16:00.325Z,79.42
2023-01-13T09:21:02.547Z,79.13
2023-01-13T09:26:05.060Z,79.15
2023-01-13T09:31:07.474Z,79.86
2023-01-13T09:36:09.899Z,78.96
2023-01-13T09:41:43.819Z,78.93
2023-01-13T09:46:59.217Z,77.66
2023-01-13T09:52:19.614Z,78.33
2023-01-13T09:57:22.140Z,76.10
2023-01-13T10:02:27.392Z,78.04
2023-01-13T10:07:34.475Z,75.62
2023-01-13T10:12:55.470Z,76.32
2023-01-13T10:18:13.501Z,74.94
2023-01-13T10:23:34.482Z,74.31
2023-01-13T10:28:36.646Z,74.46
2023-01-13T10:33:38.792Z,73.29
2023-01-13T10:38:47.203Z,73.42
2023-01-13T10:43:52.441Z,72.02
2023-01-13T10:49:00.820Z,69.78
2023-01-13T10:54:13.220Z,70.61
2023-01-13T10:59:23.954Z,70.56
2023-01-13T11:04:37.982Z,70.13
2023-01-13T11:09:40.289Z,68.90
2023-01-13T11:14:45.912Z,68.08
2023-01-13T11:19:58.202Z,69.45
2023-01-13T11:25:07.048Z,69.64
2023-01-13T11:30:39.025Z,70.83
2023-01-13T11:35:58.887Z,71.00
2023-01-13T11:41:15.141Z,71.49
2023-01-13T11:46:17.425Z,72.37
2023-01-13T11:51:54.883Z,71.54
2023-01-13T11:57:36.259Z,70.23
2023-01-13T12:02:57.866Z,69.44
2023-01-13T12:08:19.232Z,67.73
2023-01-13T12:13:54.829Z,68.04
2023-01-13T12:19:30.053Z,69.08
2023-01-13T12:25:06.995Z,67.25
2023-01-13T12:30:24.218Z,68.10
2023-01-13T12:35:40.133Z,66.62
2023-01-13T12:41:20.521Z,66.92
2023-01-13T12:46:22.705Z,66.40
2023-01-13T12:51:57.992Z,65.66
2023-01-13T12:57:00.860Z,64.99
2023-01-13T13:02:12.743Z,64.42
2023-01-13T13:07:33.819Z,65.40
2023-01-13T13:13:00.637Z,65.38
2023-01-13T13:18:32.882Z,65.34
2023-01-13T13:23:48.037Z,68.21
2023-01-13T13:29:20.741Z,74.20
2023-01-13T13:34:33.520Z,75.69
2023-01-13T13:39:54.663Z,74.27
2023-01-13T13:45:16.815Z,72.25
2023-01-13T13:50:21.328Z,72.37
2023-01-13T13:55:28.416Z,73.78
2023-01-13T14:00:35.688Z,73.73
2023-01-13T14:05:38.418Z,74.17
2023-01-13T14:10:45.075Z,73.92
2023-01-13T14:15:56.592Z,76.31
2023-01-13T14:21:17.466Z,75.28
2023-01-13T14:26:32.317Z,73.00
2023-01-13T14:31:35.129Z,73.57
2023-01-13T14:36:39.518Z,74.47
2023-01-13T14:41:50.694Z,74.03
2023-01-13T14:46:56.709Z,72.63
2023-01-13T14:52:20.502Z,73.85
2023-01-13T14:57:29.678Z,72.71
2023-01-13T15:02:34.019Z,74.89
2023-01-13T15:07:37.029Z,75.77
2023-01-13T15:12:41.074Z,75.91
2023-01-13T15:17:43.418Z,76.52
2023-01-13T15:22:46.765Z,76.44
2023-01-13T15:27:52.912Z,77.08
2023-01-13T15:32:59.068Z,77.71
2023-01-13T15:38:01.303Z,77.80
2023-01-13T15:43:22.044Z,77.54
2023-01-13T15:48:25.837Z,77.28
2023-01-13T15:53:28.494Z,76.65
2023-01-13T15:58:31.968Z,77.72
2023-01-13T16:03:34.465Z,76.39
2023-01-13T16:08:36.624Z,77.10
2023-01-13T16:13:39.282Z,76.63
2023-01-13T16:18:41.567Z,76.80
2023-01-13T16:23:43.845Z,77.57
2023-01-13T16:28:46.281Z,77.38
2023-01-13T16:33:48.690Z,77.16
2023-01-13T16:38:53.558Z,77.63
2023-01-13T16:43:55.877Z,77.16
2023-01-13T16:49:04.539Z,77.77
2023-01-13T16:54:07.417Z,78.78
2023-01-13T16:59:17.139Z,78.12
2023-01-13T17:04:23.578Z,77.49
2023-01-13T17:09:28.841Z,77.87
2023-01-13T17:14:31.122Z,77.55
2023-01-13T17:19:33.392Z,77.71
2023-01-13T17:24:37.749Z,78.13
2023-01-13T17:29:40.388Z,78.71
2023-01-13T17:34:44.040Z,78.32
2023-01-13T17:39:48.661Z,78.34
2023-01-13T17:44:50.925Z,78.10
2023-01-13T17:49:53.112Z,77.69
2023-01-13T17:54:55.491Z,77.18
2023-01-13T17:59:59.616Z,78.20
2023-01-13T18:05:01.979Z,78.52
2023-01-13T18:10:04.571Z,77.96
2023-01-13T18:15:07.804Z,77.81
2023-01-13T18:20:37.329Z,78.40
2023-01-13T18:25:59.366Z,78.25
2023-01-13T18:31:01.592Z,78.85
2023-01-13T18:36:08.538Z,78.01
2023-01-13T18:41:30.865Z,78.34
2023-01-13T18:46:33.193Z,78.12
2023-01-13T18:51:35.524Z,77.80
2023-01-13T18:56:38.009Z,77.51
2023-01-13T19:01:40.456Z,78.08
2023-01-13T19:06:49.178Z,78.08
2023-01-13T19:11:53.039Z,78.40
2023-01-13T19:16:55.162Z,78.37
2023-01-13T19:21:57.541Z,77.86
2023-01-13T19:26:59.903Z,76.77
2023-01-13T19:32:02.335Z,75.75
2023-01-13T19:37:06.741Z,75.12
2023-01-13T19:42:29.738Z,75.99
2023-01-13T19:47:32.436Z,77.02
2023-01-13T19:52:35.269Z,78.86
2023-01-13T19:57:39.370Z,79.95
2023-01-13T20:02:48.032Z,81.01
2023-01-13T20:07:51.588Z,80.58
2023-01-13T20:12:53.921Z,80.42
2023-01-13T20:17:58.004Z,79.47
2023-01-13T20:23:00.377Z,79.50
2023-01-13T20:28:07.033Z,77.94
2023-01-13T20:33:09.325Z,77.81
2023-01-13T20:38:12.234Z,78.61
2023-01-13T20:43:15.216Z,78.83
2023-01-13T20:48:18.299Z,79.60
2023-01-13T20:53:20.505Z,79.44
2023-01-13T20:58:22.610Z,78.52
2023-01-13T21:03:24.721Z,79.70
2023-01-13T21:08:26.853Z,79.15
2023-01-13T21:13:47.581Z,79.04
2023-01-13T21:19:07.798Z,79.74
2023-01-13T21:24:09.911Z,79.68
2023-01-13T21:29:12.234Z,80.54
2023-01-13T21:34:14.575Z,79.86
2023-01-13T21:39:16.981Z,79.84
2023-01-13T21:44:39.503Z,80.07
2023-01-13T21:49:44.536Z,79.55
2023-01-13T21:55:05.276Z,78.89
2023-01-13T22:00:08.605Z,78.70
2023-01-13T22:05:13.161Z,78.80
2023-01-13T22:10:19.569Z,78.36
2023-01-13T22:15:25.857Z,79.30
2023-01-13T22:20:28.347Z,79.60
2023-01-13T22:25:30.832Z,80.23
2023-01-13T22:30:33.402Z,79.63
2023-01-13T22:35:35.773Z,78.90
2023-01-13T22:40:38.053Z,78.55
2023-01-13T22:45:40.342Z,78.14
2023-01-13T22:50:42.470Z,78.44
2023-01-13T22:55:52.918Z,77.76
2023-01-13T23:00:56.210Z,77.83
2023-01-13T23:05:59.634Z,76.73
2023-01-13T23:11:05.587Z,76.97
2023-01-13T23:16:15.534Z,77.29
2023-01-13T23:21:26.417Z,76.66
2023-01-13T23:26:30.845Z,76.83
2023-01-13T23:31:33.805Z,76.55
2023-01-13T23:36:41.066Z,76.42
2023-01-13T23:41:43.395Z,76.78
2023-01-13T23:46:45.614Z,76.90
2023-01-13T23:51:51.699Z,75.87
2023-01-13T23:56:53.999Z,75.43
